Ana Sayfa
METAR-TAF:

METAR-TAF

Havaalanları :

Şırnak Şerafettin Elçi Havalimanı

Şırnak, Türkiye

Enlem: 37-21-50N, Boylam: 42-03-36E, yükseklik: 621 m

Güncel hava durumu gözlemi

Rapor saat 04:50 UTC de 1 saat ve 5 dakika önce yapıldı.
Rüzgar batıdan 5 kt, batı/güneybatı ve kuzeybatı arasında değişken
Sıcaklık 32°C
Nem 20%
Basınç 1007 hPa
Görüş mesafesi 10 km veya daha fazla
1500 m altında bulut yok ve kümülonimbus yok

METAR: LTCV 170450Z 28005KT 250V310 CAVOK 32/06 Q1007

Saat: 08:55 (05:55 UTC)

Tahmin

Rapor saat 04:40 UTC de 1 saat ve 15 dakika önce yapıldı.
Ayın 17'si saat 06 UTC'den ayın 17'si saat 15 UTC'ye kadar geçerli Tahmin
Rüzgar güney/güneydoğudan 7 kt
Görüş mesafesi 10 km veya daha fazla
1500 m altında bulut yok ve kümülonimbus yok

TAF: LTCV 170440Z 1706/1715 16007KT CAVOK

4.000'den fazla havaalanı için hava durumu gözlemleri ve tahminleri (METAR ve TAF raporları).

Kullanılabilir istasyonlar harita üzerinde sarı ve kırmızı noktalarla gösterilir.

İstasyonun adını görmek için fareyi noktanın üzerinde gezdirin.

Sonrasında hava gözlem ve tahminlerini görmek için tıklayın.

Haritayı değiştirmek için: yaklaştırmak için siyah artı işaretli yeşil düğmeye ve uzaklaştırmak için de eksi işaretli düğmeye hızla tıklayın; bitişik haritalar için yeşil okları kullanın.


METAR-TAF: